sensor_id;sensor_type;location;lat;lon;timestamp;pressure;altitude;pressure_sealevel;temperature;humidity
25944;BME280;13742;49.306;8.636;2023-05-03T00:00:15;101428.01;;;11.33;69.63
25944;BME280;13742;49.306;8.636;2023-05-03T00:01:12;101429.23;;;11.31;69.63
25944;BME280;13742;49.306;8.636;2023-05-03T00:02:13;101426.07;;;11.29;69.59
25944;BME280;13742;49.306;8.636;2023-05-03T00:03:13;101430.33;;;11.22;70.04
25944;BME280;13742;49.306;8.636;2023-05-03T00:04:15;101429.63;;;11.27;69.78
25944;BME280;13742;49.306;8.636;2023-05-03T00:05:13;101432.44;;;11.16;70.18
25944;BME280;13742;49.306;8.636;2023-05-03T00:06:13;101437.77;;;10.94;71.51
25944;BME280;13742;49.306;8.636;2023-05-03T00:07:13;101439.05;;;10.89;71.43
25944;BME280;13742;49.306;8.636;2023-05-03T00:08:12;101439.53;;;11.00;70.80
25944;BME280;13742;49.306;8.636;2023-05-03T00:09:13;101433.19;;;11.04;70.55
25944;BME280;13742;49.306;8.636;2023-05-03T00:10:14;101440.52;;;10.67;71.81
25944;BME280;13742;49.306;8.636;2023-05-03T00:11:12;101437.38;;;10.78;72.02
25944;BME280;13742;49.306;8.636;2023-05-03T00:12:12;101438.15;;;10.82;71.87
25944;BME280;13742;49.306;8.636;2023-05-03T00:13:12;101435.11;;;10.82;71.46
25944;BME280;13742;49.306;8.636;2023-05-03T00:14:12;101434.64;;;10.88;70.97
25944;BME280;13742;49.306;8.636;2023-05-03T00:15:12;101434.57;;;10.87;71.38
25944;BME280;13742;49.306;8.636;2023-05-03T00:16:12;101436.80;;;10.73;71.96
25944;BME280;13742;49.306;8.636;2023-05-03T00:17:12;101439.66;;;10.77;72.13
25944;BME280;13742;49.306;8.636;2023-05-03T00:18:12;101435.61;;;10.79;71.83
25944;BME280;13742;49.306;8.636;2023-05-03T00:19:12;101436.61;;;10.78;71.58
25944;BME280;13742;49.306;8.636;2023-05-03T00:20:14;101437.91;;;10.66;72.40
25944;BME280;13742;49.306;8.636;2023-05-03T00:21:12;101434.77;;;10.69;72.15
25944;BME280;13742;49.306;8.636;2023-05-03T00:22:13;101435.23;;;10.54;72.89
25944;BME280;13742;49.306;8.636;2023-05-03T00:23:12;101432.73;;;10.65;72.48
25944;BME280;13742;49.306;8.636;2023-05-03T00:24:12;101434.92;;;10.48;72.74
25944;BME280;13742;49.306;8.636;2023-05-03T00:25:14;101432.98;;;10.36;73.63
25944;BME280;13742;49.306;8.636;2023-05-03T00:26:12;101433.70;;;10.40;73.60
25944;BME280;13742;49.306;8.636;2023-05-03T00:27:12;101433.61;;;10.40;73.62
25944;BME280;13742;49.306;8.636;2023-05-03T00:28:12;101435.66;;;10.48;73.11
25944;BME280;13742;49.306;8.636;2023-05-03T00:29:12;101431.16;;;10.41;73.42
25944;BME280;13742;49.306;8.636;2023-05-03T00:30:12;101429.97;;;10.45;73.05
25944;BME280;13742;49.306;8.636;2023-05-03T00:31:12;101434.48;;;10.52;72.66
25944;BME280;13742;49.306;8.636;2023-05-03T00:32:12;101434.51;;;10.55;72.10
25944;BME280;13742;49.306;8.636;2023-05-03T00:33:13;101433.49;;;10.53;71.87
25944;BME280;13742;49.306;8.636;2023-05-03T00:34:12;101434.93;;;10.52;71.98
25944;BME280;13742;49.306;8.636;2023-05-03T00:35:12;101433.66;;;10.54;72.35
25944;BME280;13742;49.306;8.636;2023-05-03T00:36:13;101433.30;;;10.54;72.26
25944;BME280;13742;49.306;8.636;2023-05-03T00:37:12;101435.41;;;10.57;71.70
25944;BME280;13742;49.306;8.636;2023-05-03T00:38:16;101438.53;;;10.60;71.90
25944;BME280;13742;49.306;8.636;2023-05-03T00:39:13;101438.34;;;10.60;72.18
25944;BME280;13742;49.306;8.636;2023-05-03T00:40:16;101438.34;;;10.60;71.91
25944;BME280;13742;49.306;8.636;2023-05-03T00:41:12;101441.77;;;10.47;72.58
25944;BME280;13742;49.306;8.636;2023-05-03T00:42:12;101441.08;;;10.49;72.90
25944;BME280;13742;49.306;8.636;2023-05-03T00:43:12;101438.85;;;10.55;72.07
25944;BME280;13742;49.306;8.636;2023-05-03T00:44:13;101437.19;;;10.58;71.86
25944;BME280;13742;49.306;8.636;2023-05-03T00:45:12;101438.93;;;10.61;71.54
25944;BME280;13742;49.306;8.636;2023-05-03T00:46:12;101435.22;;;10.59;72.30
25944;BME280;13742;49.306;8.636;2023-05-03T00:47:13;101436.56;;;10.54;72.00
25944;BME280;13742;49.306;8.636;2023-05-03T00:48:12;101430.46;;;10.55;71.70
25944;BME280;13742;49.306;8.636;2023-05-03T00:49:12;101429.84;;;10.57;71.83
25944;BME280;13742;49.306;8.636;2023-05-03T00:50:12;101429.44;;;10.59;71.47
25944;BME280;13742;49.306;8.636;2023-05-03T00:51:13;101432.83;;;10.59;71.13
25944;BME280;13742;49.306;8.636;2023-05-03T00:52:12;101431.61;;;10.54;71.96
25944;BME280;13742;49.306;8.636;2023-05-03T00:53:12;101428.69;;;10.54;71.91
25944;BME280;13742;49.306;8.636;2023-05-03T00:54:12;101430.64;;;10.56;71.85
25944;BME280;13742;49.306;8.636;2023-05-03T00:55:12;101430.69;;;10.53;71.34
25944;BME280;13742;49.306;8.636;2023-05-03T00:56:13;101426.73;;;10.47;71.44
25944;BME280;13742;49.306;8.636;2023-05-03T00:57:12;101426.30;;;10.48;71.87
25944;BME280;13742;49.306;8.636;2023-05-03T00:58:12;101427.17;;;10.52;72.12
25944;BME280;13742;49.306;8.636;2023-05-03T00:59:12;101430.47;;;10.52;71.69
25944;BME280;13742;49.306;8.636;2023-05-03T01:00:13;101430.11;;;10.51;71.79
25944;BME280;13742;49.306;8.636;2023-05-03T01:01:14;101427.97;;;10.50;72.16
25944;BME280;13742;49.306;8.636;2023-05-03T01:02:12;101427.68;;;10.36;73.13
25944;BME280;13742;49.306;8.636;2023-05-03T01:03:13;101427.39;;;10.38;73.00
25944;BME280;13742;49.306;8.636;2023-05-03T01:04:12;101426.41;;;10.36;73.08
25944;BME280;13742;49.306;8.636;2023-05-03T01:05:12;101421.29;;;10.38;72.95
25944;BME280;13742;49.306;8.636;2023-05-03T01:11:15;101419.45;;;10.38;72.44
25944;BME280;13742;49.306;8.636;2023-05-03T01:14:20;101414.65;;;10.33;72.64
25944;BME280;13742;49.306;8.636;2023-05-03T01:15:16;101413.82;;;10.29;73.05
25944;BME280;13742;49.306;8.636;2023-05-03T01:17:13;101411.41;;;10.23;73.13
25944;BME280;13742;49.306;8.636;2023-05-03T01:19:15;101410.50;;;10.22;73.24
25944;BME280;13742;49.306;8.636;2023-05-03T01:20:13;101411.56;;;10.22;73.34
25944;BME280;13742;49.306;8.636;2023-05-03T01:21:12;101410.61;;;10.25;72.66
25944;BME280;13742;49.306;8.636;2023-05-03T01:24:13;101407.77;;;10.02;74.41
25944;BME280;13742;49.306;8.636;2023-05-03T01:25:13;101407.86;;;10.06;73.99
25944;BME280;13742;49.306;8.636;2023-05-03T01:26:13;101402.06;;;10.07;73.37
25944;BME280;13742;49.306;8.636;2023-05-03T01:27:12;101403.58;;;10.10;73.29
25944;BME280;13742;49.306;8.636;2023-05-03T01:28:12;101400.47;;;10.12;73.48
25944;BME280;13742;49.306;8.636;2023-05-03T01:29:13;101399.47;;;10.12;73.37
25944;BME280;13742;49.306;8.636;2023-05-03T01:30:12;101399.11;;;10.08;73.83
25944;BME280;13742;49.306;8.636;2023-05-03T01:32:14;101400.31;;;10.03;73.66
25944;BME280;13742;49.306;8.636;2023-05-03T01:33:15;101400.72;;;10.03;73.66
25944;BME280;13742;49.306;8.636;2023-05-03T01:36:15;101405.63;;;9.88;74.45
25944;BME280;13742;49.306;8.636;2023-05-03T01:37:12;101405.91;;;9.80;74.69
25944;BME280;13742;49.306;8.636;2023-05-03T01:38:12;101404.08;;;9.69;75.05
25944;BME280;13742;49.306;8.636;2023-05-03T01:39:18;101404.72;;;9.63;75.18
25944;BME280;13742;49.306;8.636;2023-05-03T01:40:15;101401.26;;;9.62;74.87
25944;BME280;13742;49.306;8.636;2023-05-03T01:41:12;101403.27;;;9.72;74.51
25944;BME280;13742;49.306;8.636;2023-05-03T01:42:12;101400.44;;;9.76;74.32
25944;BME280;13742;49.306;8.636;2023-05-03T01:43:13;101396.59;;;9.80;74.70
25944;BME280;13742;49.306;8.636;2023-05-03T01:44:12;101400.20;;;9.84;74.25
25944;BME280;13742;49.306;8.636;2023-05-03T01:45:12;101397.43;;;9.86;73.92
25944;BME280;13742;49.306;8.636;2023-05-03T01:46:13;101397.28;;;9.87;74.03
25944;BME280;13742;49.306;8.636;2023-05-03T01:47:14;101398.77;;;9.87;74.00
25944;BME280;13742;49.306;8.636;2023-05-03T01:48:16;101402.00;;;9.90;73.99
25944;BME280;13742;49.306;8.636;2023-05-03T01:49:12;101404.72;;;9.88;74.06
25944;BME280;13742;49.306;8.636;2023-05-03T01:50:12;101408.32;;;9.81;74.15
25944;BME280;13742;49.306;8.636;2023-05-03T01:51:12;101412.45;;;9.74;74.83
25944;BME280;13742;49.306;8.636;2023-05-03T01:52:12;101410.80;;;9.72;74.71
25944;BME280;13742;49.306;8.636;2023-05-03T01:53:12;101407.37;;;9.74;74.64
25944;BME280;13742;49.306;8.636;2023-05-03T01:54:12;101410.84;;;9.66;74.83
25944;BME280;13742;49.306;8.636;2023-05-03T01:55:12;101409.99;;;9.57;74.76
25944;BME280;13742;49.306;8.636;2023-05-03T01:56:12;101403.59;;;9.65;74.99
25944;BME280;13742;49.306;8.636;2023-05-03T01:57:12;101403.96;;;9.61;75.00
25944;BME280;13742;49.306;8.636;2023-05-03T01:58:12;101402.21;;;9.51;75.64
25944;BME280;13742;49.306;8.636;2023-05-03T01:59:12;101407.80;;;9.40;75.69
25944;BME280;13742;49.306;8.636;2023-05-03T02:00:13;101407.27;;;9.50;75.40
25944;BME280;13742;49.306;8.636;2023-05-03T02:01:12;101403.92;;;9.55;75.18
25944;BME280;13742;49.306;8.636;2023-05-03T02:02:12;101403.59;;;9.59;75.23
25944;BME280;13742;49.306;8.636;2023-05-03T02:03:12;101404.94;;;9.59;75.29
25944;BME280;13742;49.306;8.636;2023-05-03T02:04:12;101403.47;;;9.62;74.95
25944;BME280;13742;49.306;8.636;2023-05-03T02:05:12;101404.02;;;9.63;74.89
25944;BME280;13742;49.306;8.636;2023-05-03T02:06:12;101404.05;;;9.64;74.87
25944;BME280;13742;49.306;8.636;2023-05-03T02:07:12;101405.92;;;9.66;74.28
25944;BME280;13742;49.306;8.636;2023-05-03T02:08:12;101406.55;;;9.56;74.87
25944;BME280;13742;49.306;8.636;2023-05-03T02:09:12;101405.72;;;9.47;75.13
25944;BME280;13742;49.306;8.636;2023-05-03T02:10:13;101401.48;;;9.52;75.26
25944;BME280;13742;49.306;8.636;2023-05-03T02:11:12;101405.33;;;9.57;74.57
25944;BME280;13742;49.306;8.636;2023-05-03T02:12:12;101399.82;;;9.58;74.54
25944;BME280;13742;49.306;8.636;2023-05-03T02:13:12;101402.52;;;9.58;75.05
25944;BME280;13742;49.306;8.636;2023-05-03T02:14:12;101400.48;;;9.58;74.37
25944;BME280;13742;49.306;8.636;2023-05-03T02:15:12;101401.92;;;9.58;74.65
25944;BME280;13742;49.306;8.636;2023-05-03T02:16:12;101403.56;;;9.58;74.89
25944;BME280;13742;49.306;8.636;2023-05-03T02:17:13;101403.70;;;9.61;74.10
25944;BME280;13742;49.306;8.636;2023-05-03T02:18:13;101400.20;;;9.63;74.31
25944;BME280;13742;49.306;8.636;2023-05-03T02:19:12;101402.89;;;9.64;73.96
25944;BME280;13742;49.306;8.636;2023-05-03T02:20:12;101406.28;;;9.65;74.52
25944;BME280;13742;49.306;8.636;2023-05-03T02:21:13;101400.67;;;9.65;74.20
25944;BME280;13742;49.306;8.636;2023-05-03T02:22:12;101399.82;;;9.66;74.22
25944;BME280;13742;49.306;8.636;2023-05-03T02:23:12;101400.69;;;9.68;74.22
25944;BME280;13742;49.306;8.636;2023-05-03T02:24:12;101404.30;;;9.68;73.98
25944;BME280;13742;49.306;8.636;2023-05-03T02:25:12;101406.22;;;9.69;73.54
25944;BME280;13742;49.306;8.636;2023-05-03T02:26:12;101408.43;;;9.68;73.21
25944;BME280;13742;49.306;8.636;2023-05-03T02:27:12;101408.69;;;9.69;73.14
25944;BME280;13742;49.306;8.636;2023-05-03T02:28:12;101405.51;;;9.70;73.32
25944;BME280;13742;49.306;8.636;2023-05-03T02:29:12;101410.29;;;9.71;73.41
25944;BME280;13742;49.306;8.636;2023-05-03T02:30:13;101409.19;;;9.71;73.13
25944;BME280;13742;49.306;8.636;2023-05-03T02:31:12;101410.55;;;9.71;73.44
25944;BME280;13742;49.306;8.636;2023-05-03T02:32:12;101409.91;;;9.70;73.28
25944;BME280;13742;49.306;8.636;2023-05-03T02:33:12;101406.04;;;9.68;72.94
25944;BME280;13742;49.306;8.636;2023-05-03T02:34:12;101406.77;;;9.67;72.92
25944;BME280;13742;49.306;8.636;2023-05-03T02:35:12;101407.62;;;9.68;73.13
25944;BME280;13742;49.306;8.636;2023-05-03T02:36:12;101411.06;;;9.68;72.91
25944;BME280;13742;49.306;8.636;2023-05-03T02:37:12;101414.06;;;9.70;73.43
25944;BME280;13742;49.306;8.636;2023-05-03T02:38:12;101411.45;;;9.71;73.22
25944;BME280;13742;49.306;8.636;2023-05-03T02:39:12;101414.03;;;9.70;72.88
25944;BME280;13742;49.306;8.636;2023-05-03T02:40:12;101409.81;;;9.64;73.81
25944;BME280;13742;49.306;8.636;2023-05-03T02:41:13;101410.84;;;9.66;73.15
25944;BME280;13742;49.306;8.636;2023-05-03T02:42:12;101412.47;;;9.67;73.78
25944;BME280;13742;49.306;8.636;2023-05-03T02:43:12;101412.02;;;9.68;73.51
25944;BME280;13742;49.306;8.636;2023-05-03T02:44:12;101412.68;;;9.68;73.27
25944;BME280;13742;49.306;8.636;2023-05-03T02:45:12;101419.34;;;9.67;72.94
25944;BME280;13742;49.306;8.636;2023-05-03T02:46:12;101415.52;;;9.61;73.11
25944;BME280;13742;49.306;8.636;2023-05-03T02:47:12;101416.13;;;9.59;73.30
25944;BME280;13742;49.306;8.636;2023-05-03T02:48:12;101416.16;;;9.61;73.49
25944;BME280;13742;49.306;8.636;2023-05-03T02:49:12;101420.80;;;9.60;73.66
25944;BME280;13742;49.306;8.636;2023-05-03T02:50:12;101421.04;;;9.50;74.16
25944;BME280;13742;49.306;8.636;2023-05-03T02:51:12;101418.38;;;9.47;74.57
25944;BME280;13742;49.306;8.636;2023-05-03T02:52:12;101422.02;;;9.49;74.48
25944;BME280;13742;49.306;8.636;2023-05-03T02:53:12;101420.27;;;9.44;74.45
25944;BME280;13742;49.306;8.636;2023-05-03T02:54:12;101417.17;;;9.44;74.70
25944;BME280;13742;49.306;8.636;2023-05-03T02:55:12;101422.55;;;9.45;74.41
25944;BME280;13742;49.306;8.636;2023-05-03T02:56:12;101418.97;;;9.43;74.36
25944;BME280;13742;49.306;8.636;2023-05-03T02:57:12;101416.25;;;9.40;74.37
25944;BME280;13742;49.306;8.636;2023-05-03T02:58:12;101416.52;;;9.34;75.16
25944;BME280;13742;49.306;8.636;2023-05-03T02:59:12;101422.20;;;9.33;74.79
25944;BME280;13742;49.306;8.636;2023-05-03T03:00:14;101425.50;;;9.33;74.76
25944;BME280;13742;49.306;8.636;2023-05-03T03:01:12;101419.42;;;9.35;74.94
25944;BME280;13742;49.306;8.636;2023-05-03T03:02:12;101419.31;;;9.36;74.66
25944;BME280;13742;49.306;8.636;2023-05-03T03:03:12;101424.14;;;9.36;74.96
25944;BME280;13742;49.306;8.636;2023-05-03T03:04:12;101423.48;;;9.37;74.75
25944;BME280;13742;49.306;8.636;2023-05-03T03:05:13;101423.78;;;9.39;74.55
25944;BME280;13742;49.306;8.636;2023-05-03T03:06:12;101427.05;;;9.38;74.51
25944;BME280;13742;49.306;8.636;2023-05-03T03:07:12;101425.58;;;9.37;74.02
25944;BME280;13742;49.306;8.636;2023-05-03T03:08:12;101423.63;;;9.38;74.25
25944;BME280;13742;49.306;8.636;2023-05-03T03:09:12;101424.22;;;9.35;74.32
25944;BME280;13742;49.306;8.636;2023-05-03T03:10:12;101424.81;;;9.31;74.90
25944;BME280;13742;49.306;8.636;2023-05-03T03:11:12;101424.83;;;9.29;74.81
25944;BME280;13742;49.306;8.636;2023-05-03T03:12:12;101425.52;;;9.28;75.03
25944;BME280;13742;49.306;8.636;2023-05-03T03:13:12;101424.84;;;9.28;74.48
25944;BME280;13742;49.306;8.636;2023-05-03T03:14:12;101427.63;;;9.29;75.07
25944;BME280;13742;49.306;8.636;2023-05-03T03:15:12;101428.77;;;9.30;74.61
25944;BME280;13742;49.306;8.636;2023-05-03T03:16:12;101432.03;;;9.29;74.85
25944;BME280;13742;49.306;8.636;2023-05-03T03:17:12;101426.97;;;9.31;74.65
25944;BME280;13742;49.306;8.636;2023-05-03T03:18:12;101428.93;;;9.30;75.02
25944;BME280;13742;49.306;8.636;2023-05-03T03:19:12;101432.66;;;9.31;74.39
25944;BME280;13742;49.306;8.636;2023-05-03T03:20:12;101429.80;;;9.31;74.12
25944;BME280;13742;49.306;8.636;2023-05-03T03:21:12;101430.38;;;9.33;74.56
25944;BME280;13742;49.306;8.636;2023-05-03T03:22:12;101431.28;;;9.28;74.22
25944;BME280;13742;49.306;8.636;2023-05-03T03:23:12;101433.38;;;9.25;74.67
25944;BME280;13742;49.306;8.636;2023-05-03T03:24:12;101432.30;;;9.23;74.82
25944;BME280;13742;49.306;8.636;2023-05-03T03:25:12;101434.07;;;9.21;74.72
25944;BME280;13742;49.306;8.636;2023-05-03T03:26:12;101432.34;;;9.24;74.81
25944;BME280;13742;49.306;8.636;2023-05-03T03:27:12;101428.70;;;9.25;74.48
25944;BME280;13742;49.306;8.636;2023-05-03T03:28:12;101427.72;;;9.27;74.51
25944;BME280;13742;49.306;8.636;2023-05-03T03:29:12;101428.86;;;9.27;74.71
25944;BME280;13742;49.306;8.636;2023-05-03T03:30:13;101430.51;;;9.27;74.65
25944;BME280;13742;49.306;8.636;2023-05-03T03:31:12;101435.01;;;9.29;74.25
25944;BME280;13742;49.306;8.636;2023-05-03T03:32:12;101431.31;;;9.28;74.81
25944;BME280;13742;49.306;8.636;2023-05-03T03:33:12;101431.86;;;9.29;74.92
25944;BME280;13742;49.306;8.636;2023-05-03T03:34:12;101430.59;;;9.29;74.51
25944;BME280;13742;49.306;8.636;2023-05-03T03:35:12;101428.83;;;9.25;75.16
25944;BME280;13742;49.306;8.636;2023-05-03T03:36:12;101429.08;;;9.27;74.72
25944;BME280;13742;49.306;8.636;2023-05-03T03:37:12;101426.38;;;9.26;74.45
25944;BME280;13742;49.306;8.636;2023-05-03T03:38:12;101425.58;;;9.25;74.50
25944;BME280;13742;49.306;8.636;2023-05-03T03:39:12;101419.20;;;9.21;74.76
25944;BME280;13742;49.306;8.636;2023-05-03T03:40:12;101421.13;;;9.22;74.48
25944;BME280;13742;49.306;8.636;2023-05-03T03:41:12;101419.84;;;9.24;74.55
25944;BME280;13742;49.306;8.636;2023-05-03T03:42:13;101420.95;;;9.22;74.56
25944;BME280;13742;49.306;8.636;2023-05-03T03:43:12;101426.11;;;9.21;74.96
25944;BME280;13742;49.306;8.636;2023-05-03T03:44:13;101422.82;;;9.23;74.82
25944;BME280;13742;49.306;8.636;2023-05-03T03:45:12;101420.53;;;9.24;74.46
25944;BME280;13742;49.306;8.636;2023-05-03T03:46:12;101423.98;;;9.25;74.32
25944;BME280;13742;49.306;8.636;2023-05-03T03:47:12;101422.89;;;9.25;74.30
25944;BME280;13742;49.306;8.636;2023-05-03T03:48:12;101420.04;;;9.26;73.97
25944;BME280;13742;49.306;8.636;2023-05-03T03:49:12;101422.59;;;9.26;74.42
25944;BME280;13742;49.306;8.636;2023-05-03T03:50:12;101424.31;;;9.26;74.14
25944;BME280;13742;49.306;8.636;2023-05-03T03:51:12;101425.78;;;9.27;74.47
25944;BME280;13742;49.306;8.636;2023-05-03T03:52:12;101425.66;;;9.28;74.34
25944;BME280;13742;49.306;8.636;2023-05-03T03:53:12;101423.63;;;9.29;74.34
25944;BME280;13742;49.306;8.636;2023-05-03T03:54:12;101425.04;;;9.29;74.43
25944;BME280;13742;49.306;8.636;2023-05-03T03:55:12;101427.76;;;9.29;74.54
25944;BME280;13742;49.306;8.636;2023-05-03T03:56:12;101427.41;;;9.28;74.13
25944;BME280;13742;49.306;8.636;2023-05-03T03:57:12;101424.98;;;9.26;74.92
25944;BME280;13742;49.306;8.636;2023-05-03T03:58:12;101421.63;;;9.25;74.55
25944;BME280;13742;49.306;8.636;2023-05-03T03:59:12;101422.00;;;9.23;74.37
25944;BME280;13742;49.306;8.636;2023-05-03T04:00:13;101423.00;;;9.24;74.63
25944;BME280;13742;49.306;8.636;2023-05-03T04:01:12;101425.39;;;9.24;74.15
25944;BME280;13742;49.306;8.636;2023-05-03T04:02:12;101421.09;;;9.23;74.53
25944;BME280;13742;49.306;8.636;2023-05-03T04:03:12;101423.61;;;9.24;74.92
25944;BME280;13742;49.306;8.636;2023-05-03T04:04:12;101425.69;;;9.25;74.68
25944;BME280;13742;49.306;8.636;2023-05-03T04:05:12;101424.67;;;9.27;74.67
25944;BME280;13742;49.306;8.636;2023-05-03T04:06:12;101424.84;;;9.28;75.30
25944;BME280;13742;49.306;8.636;2023-05-03T04:07:12;101425.45;;;9.29;75.18
25944;BME280;13742;49.306;8.636;2023-05-03T04:08:12;101423.91;;;9.27;75.17
25944;BME280;13742;49.306;8.636;2023-05-03T04:09:13;101424.02;;;9.27;74.65
25944;BME280;13742;49.306;8.636;2023-05-03T04:10:12;101423.19;;;9.27;74.27
25944;BME280;13742;49.306;8.636;2023-05-03T04:11:12;101423.55;;;9.29;74.81
25944;BME280;13742;49.306;8.636;2023-05-03T04:12:12;101422.52;;;9.29;74.93
25944;BME280;13742;49.306;8.636;2023-05-03T04:13:12;101422.50;;;9.30;75.10
25944;BME280;13742;49.306;8.636;2023-05-03T04:14:12;101424.23;;;9.30;74.85
25944;BME280;13742;49.306;8.636;2023-05-03T04:15:12;101428.88;;;9.30;74.76
25944;BME280;13742;49.306;8.636;2023-05-03T04:16:12;101420.83;;;9.29;74.91
25944;BME280;13742;49.306;8.636;2023-05-03T04:17:12;101423.78;;;9.29;75.19
25944;BME280;13742;49.306;8.636;2023-05-03T04:18:12;101419.88;;;9.29;74.54
25944;BME280;13742;49.306;8.636;2023-05-03T04:19:12;101421.97;;;9.29;74.40
25944;BME280;13742;49.306;8.636;2023-05-03T04:20:12;101417.48;;;9.30;74.29
25944;BME280;13742;49.306;8.636;2023-05-03T04:21:12;101418.12;;;9.30;74.69
25944;BME280;13742;49.306;8.636;2023-05-03T04:22:12;101417.33;;;9.11;75.72
25944;BME280;13742;49.306;8.636;2023-05-03T04:23:12;101418.23;;;9.15;76.24
25944;BME280;13742;49.306;8.636;2023-05-03T04:24:14;101422.00;;;9.19;75.51
25944;BME280;13742;49.306;8.636;2023-05-03T04:25:16;101423.27;;;9.20;75.21
25944;BME280;13742;49.306;8.636;2023-05-03T04:26:12;101427.48;;;9.21;75.71
25944;BME280;13742;49.306;8.636;2023-05-03T04:27:13;101427.25;;;9.22;75.18
25944;BME280;13742;49.306;8.636;2023-05-03T04:28:12;101425.62;;;9.21;74.85
25944;BME280;13742;49.306;8.636;2023-05-03T04:29:12;101428.70;;;9.22;75.03
25944;BME280;13742;49.306;8.636;2023-05-03T04:30:14;101428.41;;;9.22;74.76
25944;BME280;13742;49.306;8.636;2023-05-03T04:31:13;101430.11;;;9.23;75.54
25944;BME280;13742;49.306;8.636;2023-05-03T04:32:13;101424.81;;;9.21;75.02
25944;BME280;13742;49.306;8.636;2023-05-03T04:33:12;101430.20;;;9.15;75.39
25944;BME280;13742;49.306;8.636;2023-05-03T04:34:15;101434.08;;;9.17;75.40
25944;BME280;13742;49.306;8.636;2023-05-03T04:35:12;101430.27;;;9.16;75.17
25944;BME280;13742;49.306;8.636;2023-05-03T04:36:15;101433.97;;;9.17;75.37
25944;BME280;13742;49.306;8.636;2023-05-03T04:37:13;101433.78;;;9.17;75.31
25944;BME280;13742;49.306;8.636;2023-05-03T04:38:12;101432.95;;;9.18;75.48
25944;BME280;13742;49.306;8.636;2023-05-03T04:39:12;101437.89;;;9.18;75.15
25944;BME280;13742;49.306;8.636;2023-05-03T04:40:12;101435.80;;;9.15;75.35
25944;BME280;13742;49.306;8.636;2023-05-03T04:41:12;101436.36;;;9.14;74.88
25944;BME280;13742;49.306;8.636;2023-05-03T04:42:14;101443.00;;;9.14;75.68
25944;BME280;13742;49.306;8.636;2023-05-03T04:43:12;101443.38;;;9.14;75.43
25944;BME280;13742;49.306;8.636;2023-05-03T04:44:13;101441.27;;;9.06;75.22
25944;BME280;13742;49.306;8.636;2023-05-03T04:45:13;101444.80;;;9.09;76.10
25944;BME280;13742;49.306;8.636;2023-05-03T04:46:12;101446.22;;;9.08;76.21
25944;BME280;13742;49.306;8.636;2023-05-03T04:47:12;101447.39;;;9.09;75.69
25944;BME280;13742;49.306;8.636;2023-05-03T04:48:12;101447.81;;;9.11;75.79
25944;BME280;13742;49.306;8.636;2023-05-03T04:49:12;101450.02;;;9.13;76.27
25944;BME280;13742;49.306;8.636;2023-05-03T04:50:12;101450.42;;;9.14;75.91
25944;BME280;13742;49.306;8.636;2023-05-03T04:51:12;101453.16;;;9.15;76.23
25944;BME280;13742;49.306;8.636;2023-05-03T04:52:13;101451.38;;;9.15;75.63
25944;BME280;13742;49.306;8.636;2023-05-03T04:53:12;101451.97;;;9.16;75.77
25944;BME280;13742;49.306;8.636;2023-05-03T04:54:13;101451.69;;;9.16;75.80
25944;BME280;13742;49.306;8.636;2023-05-03T04:55:13;101449.78;;;9.17;75.89
25944;BME280;13742;49.306;8.636;2023-05-03T04:56:12;101454.83;;;9.18;75.78
25944;BME280;13742;49.306;8.636;2023-05-03T04:57:12;101455.95;;;9.19;75.68
25944;BME280;13742;49.306;8.636;2023-05-03T04:58:12;101452.58;;;9.19;75.49
25944;BME280;13742;49.306;8.636;2023-05-03T04:59:12;101449.34;;;9.18;75.74
25944;BME280;13742;49.306;8.636;2023-05-03T05:00:12;101453.91;;;9.16;75.53
25944;BME280;13742;49.306;8.636;2023-05-03T05:01:13;101454.66;;;9.16;75.91
25944;BME280;13742;49.306;8.636;2023-05-03T05:02:12;101450.52;;;9.15;76.09
25944;BME280;13742;49.306;8.636;2023-05-03T05:03:12;101447.55;;;9.13;75.96
25944;BME280;13742;49.306;8.636;2023-05-03T05:04:12;101449.98;;;9.13;76.03
25944;BME280;13742;49.306;8.636;2023-05-03T05:05:12;101448.72;;;9.13;76.10
25944;BME280;13742;49.306;8.636;2023-05-03T05:06:12;101445.47;;;9.12;76.20
25944;BME280;13742;49.306;8.636;2023-05-03T05:07:12;101449.23;;;9.00;76.04
25944;BME280;13742;49.306;8.636;2023-05-03T05:08:12;101446.88;;;8.87;77.00
25944;BME280;13742;49.306;8.636;2023-05-03T05:10:13;101448.16;;;8.75;77.46
25944;BME280;13742;49.306;8.636;2023-05-03T05:11:12;101446.02;;;8.71;77.34
25944;BME280;13742;49.306;8.636;2023-05-03T05:12:12;101444.58;;;8.77;77.72
25944;BME280;13742;49.306;8.636;2023-05-03T05:13:12;101442.23;;;8.76;77.41
25944;BME280;13742;49.306;8.636;2023-05-03T05:14:12;101442.79;;;8.82;77.34
25944;BME280;13742;49.306;8.636;2023-05-03T05:15:12;101445.66;;;8.84;77.01
25944;BME280;13742;49.306;8.636;2023-05-03T05:16:12;101441.91;;;8.86;76.58
25944;BME280;13742;49.306;8.636;2023-05-03T05:17:12;101444.32;;;8.87;76.69
25944;BME280;13742;49.306;8.636;2023-05-03T05:18:12;101446.19;;;8.83;77.04
25944;BME280;13742;49.306;8.636;2023-05-03T05:19:12;101444.73;;;8.87;76.53
25944;BME280;13742;49.306;8.636;2023-05-03T05:20:12;101445.33;;;8.88;76.50
25944;BME280;13742;49.306;8.636;2023-05-03T05:21:13;101448.48;;;8.91;76.95
25944;BME280;13742;49.306;8.636;2023-05-03T05:22:12;101447.88;;;8.85;77.15
25944;BME280;13742;49.306;8.636;2023-05-03T05:23:12;101446.19;;;8.88;77.32
25944;BME280;13742;49.306;8.636;2023-05-03T05:24:12;101451.98;;;8.85;77.15
25944;BME280;13742;49.306;8.636;2023-05-03T05:25:12;101451.53;;;8.89;77.38
25944;BME280;13742;49.306;8.636;2023-05-03T05:26:12;101448.09;;;8.86;77.50
25944;BME280;13742;49.306;8.636;2023-05-03T05:27:12;101450.50;;;8.91;76.79
25944;BME280;13742;49.306;8.636;2023-05-03T05:28:12;101451.27;;;8.91;77.15
25944;BME280;13742;49.306;8.636;2023-05-03T05:29:12;101452.00;;;8.96;76.77
25944;BME280;13742;49.306;8.636;2023-05-03T05:30:12;101453.72;;;9.00;76.83
25944;BME280;13742;49.306;8.636;2023-05-03T05:31:12;101457.97;;;8.98;76.84